Milk And Honey — WDF9265 — position and weather

sailwx.info

Track history (hours):
 
Tides and Currents Weather Stations Pressure Air Temp Water Temp Dewpoint Dewpoint Depression Visibility Wind Speed Wind Dir Waves Ship Positions

Milk And Honey

Owner: EKS Chartering Inc, Parsippany, NJ. More information available from US FCC via Universal Licensing System and Coast Guard Vessel Documentation Center.

Last reported at 2017-Apr-22 15:28 UTC. Time now 2017-Apr-25 16:27 UTC.
Position N 18°19' W 064°50'.

Length 40 m.

Type: Pleasure craft. MMSI: 367503380.

Date/timePositionNaut miles runAvg speedWind from/ knotsBaromVisibWave heightAir tempDewpointWater temp
2017-Apr-22 15:28N 18°19' W 064°50'2 4.2
2017-Apr-22 15:00N 18°20' W 064°48'0 0.0
2017-Apr-22 14:30N 18°20' W 064°48'3 3.1
2017-Apr-22 13:30N 18°22' W 064°46'5 9.7
2017-Apr-22 13:00N 18°22' W 064°40'6 0.2
2017-Apr-20 19:53N 18°22' W 064°34'3 6.3
2017-Apr-20 19:27N 18°23' W 064°31'0 0.1
2017-Apr-20 19:00N 18°23' W 064°31'0 0.0
2017-Apr-20 18:30N 18°23' W 064°31'0 0.0
2017-Apr-20 18:00N 18°23' W 064°31'0 0.1
2017-Apr-20 17:30N 18°23' W 064°31'0 0.1
2017-Apr-20 17:00N 18°23' W 064°31'2 4.7
2017-Apr-20 16:30N 18°25' W 064°29'  
2017-Apr-17 20:13N 18°25' W 064°31'210.6
2017-Apr-17 20:00N 18°25' W 064°33'510.5
2017-Apr-17 19:30N 18°23' W 064°39'5 9.1
2017-Apr-17 19:00N 18°23' W 064°43'4 7.3
2017-Apr-17 18:30N 18°26' W 064°46'0 0.1
2017-Apr-17 18:00N 18°26' W 064°46'0 0.0
2017-Apr-17 17:30N 18°26' W 064°46'0 0.1
2017-Apr-17 17:00N 18°26' W 064°46'0 0.0
2017-Apr-17 16:31N 18°26' W 064°46'0 0.9
2017-Apr-17 16:29N 18°26' W 064°46'0 0.0
2017-Apr-17 16:01N 18°26' W 064°46'0 1.7
2017-Apr-17 15:53N 18°26' W 064°46'0 0.5
2017-Apr-17 15:30N 18°26' W 064°46'0 1.8
2017-Apr-17 15:23N 18°26' W 064°46'0 0.6
2017-Apr-17 15:00N 18°26' W 064°46'011.9
2017-Apr-17 14:59N 18°26' W 064°46'0 0.4
2017-Apr-17 14:30N 18°26' W 064°46'0 0.0
2017-Apr-17 13:30N 18°26' W 064°46'0 0.0
2017-Apr-17 13:01N 18°26' W 064°46'0 0.0
2017-Apr-17 12:30N 18°26' W 064°46'0 0.0
2017-Apr-17 12:00N 18°26' W 064°46'0 0.0
2017-Apr-17 11:30N 18°26' W 064°46'0 0.0
2017-Apr-17 11:00N 18°26' W 064°46'0 0.0
2017-Apr-17 10:30N 18°26' W 064°46'0 0.0
2017-Apr-17 10:00N 18°26' W 064°46'0 0.1
2017-Apr-17 09:30N 18°26' W 064°46'0 0.0
2017-Apr-17 09:00N 18°26' W 064°46'0 0.0
2017-Apr-17 08:31N 18°26' W 064°46'0 0.0
2017-Apr-17 08:00N 18°26' W 064°46'0 0.1
2017-Apr-17 07:30N 18°26' W 064°46'0 0.0
2017-Apr-17 07:00N 18°26' W 064°46'0 0.1
2017-Apr-17 06:30N 18°26' W 064°46'0 0.0
2017-Apr-17 06:00N 18°26' W 064°46'0 0.0
2017-Apr-17 05:30N 18°26' W 064°46'0 0.0
2017-Apr-17 05:00N 18°26' W 064°46'0 0.0
2017-Apr-17 04:30N 18°26' W 064°46'0 0.0
2017-Apr-17 04:00N 18°26' W 064°46'0 0.0
2017-Apr-17 03:30N 18°26' W 064°46'0 0.1
2017-Apr-17 03:00N 18°26' W 064°46'0 0.1
2017-Apr-17 02:30N 18°26' W 064°46'0 0.0
2017-Apr-17 02:00N 18°26' W 064°46'0 0.0
2017-Apr-17 01:30N 18°26' W 064°46'0 0.0
2017-Apr-17 01:00N 18°26' W 064°46'0 0.1
2017-Apr-17 00:30N 18°26' W 064°46'0 0.1
2017-Apr-17 00:00N 18°26' W 064°46'0 0.0
2017-Apr-16 23:30N 18°26' W 064°46'0 0.0
2017-Apr-16 23:00N 18°26' W 064°46'0 0.1
2017-Apr-16 22:51N 18°26' W 064°46'0 0.1
2017-Apr-16 22:30N 18°26' W 064°46'0 2.4
2017-Apr-16 22:29N 18°26' W 064°46'0 0.1
2017-Apr-16 22:00N 18°26' W 064°46'0 0.1
2017-Apr-16 21:47N 18°26' W 064°46'0 0.1
2017-Apr-16 21:30N 18°26' W 064°46'0 1.1
2017-Apr-16 21:28N 18°26' W 064°46'0 0.1
2017-Apr-16 21:00N 18°26' W 064°46'0 0.3
2017-Apr-16 20:55N 18°26' W 064°46'0 0.1
2017-Apr-16 20:31N 18°26' W 064°46'0 0.3
2017-Apr-16 20:25N 18°26' W 064°46'0 0.1
2017-Apr-16 20:00N 18°26' W 064°46'0 1.9
2017-Apr-16 19:59N 18°26' W 064°46'0 0.1
2017-Apr-16 19:30N 18°26' W 064°46'0 0.2
2017-Apr-16 19:20N 18°26' W 064°46'0 0.1
2017-Apr-16 19:00N 18°26' W 064°46'0 0.2
2017-Apr-16 18:56N 18°26' W 064°46'3 6.0
2017-Apr-16 18:30N 18°24' W 064°47'017.3
2017-Apr-16 18:30N 18°24' W 064°47'4 8.6
2017-Apr-16 18:00N 18°20' W 064°48'0 0.3
2017-Apr-16 17:57N 18°20' W 064°48'0 0.1
2017-Apr-16 17:30N 18°20' W 064°48'0 0.0
2017-Apr-16 17:26N 18°20' W 064°48'0 0.0
2017-Apr-16 17:00N 18°20' W 064°48'0 0.1
2017-Apr-16 16:56N 18°20' W 064°48'0 0.0
2017-Apr-16 16:30N 18°20' W 064°48'0 0.0
2017-Apr-16 16:20N 18°20' W 064°48'0 0.0
2017-Apr-16 16:00N 18°20' W 064°48'0 0.1
2017-Apr-16 15:56N 18°20' W 064°48'0 0.8
2017-Apr-16 15:30N 18°20' W 064°48'0145.0
2017-Apr-16 15:30N 18°20' W 064°48'0 0.0
2017-Apr-16 15:00N 18°20' W 064°48'0 0.1
2017-Apr-16 14:53N 18°20' W 064°48'0 0.0
2017-Apr-16 14:05N 18°20' W 064°48'0 0.1
2017-Apr-16 14:00N 18°20' W 064°48'0 0.1
2017-Apr-16 13:30N 18°20' W 064°48'0 0.7
2017-Apr-16 13:29N 18°20' W 064°48'0 0.1
2017-Apr-16 13:00N 18°20' W 064°48'0 0.1
2017-Apr-16 12:51N 18°20' W 064°48'0 0.1
2017-Apr-16 12:30N 18°20' W 064°48'0 0.2
2017-Apr-16 12:28N 18°20' W 064°48'0 0.1
2017-Apr-16 12:00N 18°20' W 064°48'0 4.7
2017-Apr-16 11:59N 18°20' W 064°48'3 6.8
2017-Apr-16 11:30N 18°22' W 064°45'035.3
2017-Apr-16 11:30N 18°22' W 064°45'0 0.4
2017-Apr-16 11:00N 18°22' W 064°45'0 0.0
2017-Apr-16 10:30N 18°22' W 064°45'0 0.0
2017-Apr-16 10:00N 18°22' W 064°45'0 0.0
2017-Apr-16 09:30N 18°22' W 064°45'0 0.0
2017-Apr-16 09:00N 18°22' W 064°45'0 0.0
2017-Apr-16 08:30N 18°22' W 064°45'0 0.0
2017-Apr-16 08:00N 18°22' W 064°45'0 0.0
2017-Apr-16 07:30N 18°22' W 064°45'0 0.0
2017-Apr-16 07:00N 18°22' W 064°45'0 0.0
2017-Apr-16 06:30N 18°22' W 064°45'0 0.0
2017-Apr-16 06:00N 18°22' W 064°45'0 0.0
2017-Apr-16 05:30N 18°22' W 064°45'0 0.0
2017-Apr-16 05:00N 18°22' W 064°45'0 0.0
2017-Apr-16 04:30N 18°22' W 064°45'0 0.0
2017-Apr-16 04:00N 18°22' W 064°45'0 0.0
2017-Apr-16 03:30N 18°22' W 064°45'0 0.0
2017-Apr-16 03:00N 18°22' W 064°45'0 0.0
2017-Apr-16 02:30N 18°22' W 064°45'0 0.0
2017-Apr-16 02:00N 18°22' W 064°45'0 0.0
2017-Apr-16 01:30N 18°22' W 064°45'0 0.0
2017-Apr-16 01:00N 18°22' W 064°45'0 0.0
2017-Apr-16 00:30N 18°22' W 064°45'0 0.0
2017-Apr-16 00:00N 18°22' W 064°45'0 0.0
2017-Apr-15 23:30N 18°22' W 064°45'0 0.0
2017-Apr-15 23:00N 18°22' W 064°45'0 0.0
2017-Apr-15 22:30N 18°22' W 064°45'0 0.0
2017-Apr-15 22:00N 18°22' W 064°45'0 0.0
2017-Apr-15 21:30N 18°22' W 064°45'0 0.0
2017-Apr-15 21:00N 18°22' W 064°45'0 0.0
2017-Apr-15 20:30N 18°22' W 064°45'0 0.0
2017-Apr-15 20:00N 18°22' W 064°45'0 0.1
2017-Apr-15 19:31N 18°22' W 064°45'3 6.8
2017-Apr-15 19:00N 18°20' W 064°48'8 0.2
2017-Apr-13 21:32N 18°20' W 064°57'0 0.0
2017-Apr-13 20:50N 18°20' W 064°57'0 0.2
2017-Apr-13 20:29N 18°20' W 064°57'3 5.7
2017-Apr-13 20:00N 18°18' W 064°55'510.2
2017-Apr-13 19:30N 18°19' W 064°49'1 2.6
2017-Apr-13 19:00N 18°20' W 064°48'2 4.4
2017-Apr-13 18:30N 18°22' W 064°47'611.0
2017-Apr-13 18:00N 18°25' W 064°42'510.7
2017-Apr-13 17:30N 18°28' W 064°37'5 2.5
2017-Apr-13 15:27N 18°27' W 064°32'0 0.0
2017-Apr-13 10:00N 18°27' W 064°32'0 0.0
2017-Apr-13 08:40N 18°27' W 064°32'0 0.0
2017-Apr-13 08:20N 18°27' W 064°32'0 0.0
2017-Apr-13 08:00N 18°27' W 064°32'0 0.0
2017-Apr-13 07:23N 18°27' W 064°32'0 0.0
2017-Apr-13 04:54N 18°27' W 064°32'0 0.0
2017-Apr-13 04:09N 18°27' W 064°32'0 0.1
2017-Apr-13 03:49N 18°27' W 064°32'0 0.0
2017-Apr-13 03:05N 18°27' W 064°32'0 0.1
2017-Apr-13 03:00N 18°27' W 064°32'0 0.0
2017-Apr-13 02:29N 18°27' W 064°32'0 0.0
2017-Apr-13 01:01N 18°27' W 064°32'0 0.0
2017-Apr-13 00:59N 18°27' W 064°32'0 0.0
2017-Apr-12 23:15N 18°27' W 064°32'2 6.3
2017-Apr-12 22:52N 18°27' W 064°29'2 7.0
2017-Apr-12 22:30N 18°26' W 064°27'0 0.0
2017-Apr-12 21:57N 18°26' W 064°27'0 0.0
2017-Apr-12 20:46N 18°26' W 064°27'0 0.0
2017-Apr-12 19:09N 18°26' W 064°27'0 0.0
2017-Apr-12 18:56N 18°26' W 064°27'  
Track history (hours):
 
Tides and Currents Weather Stations Pressure Air Temp Water Temp Dewpoint Dewpoint Depression Visibility Wind Speed Wind Dir Waves Ship Positions

Milk And Honey

Owner: EKS Chartering Inc, Parsippany, NJ. More information available from US FCC via Universal Licensing System and Coast Guard Vessel Documentation Center.

Last reported at 2017-Apr-22 15:28 UTC. Time now 2017-Apr-25 16:27 UTC.
Position N 18°19' W 064°50'.

Length 40 m.

Type: Pleasure craft. MMSI: 367503380.

Date/timePositionNaut miles runAvg speedWind from/ knotsBaromVisibWave heightAir tempDewpointWater temp
2017-Apr-22 15:28N 18°19' W 064°50'2 4.2
2017-Apr-22 15:00N 18°20' W 064°48'0 0.0
2017-Apr-22 14:30N 18°20' W 064°48'3 3.1
2017-Apr-22 13:30N 18°22' W 064°46'5 9.7
2017-Apr-22 13:00N 18°22' W 064°40'6 0.2
2017-Apr-20 19:53N 18°22' W 064°34'3 6.3
2017-Apr-20 19:27N 18°23' W 064°31'0 0.1
2017-Apr-20 19:00N 18°23' W 064°31'0 0.0
2017-Apr-20 18:30N 18°23' W 064°31'0 0.0
2017-Apr-20 18:00N 18°23' W 064°31'0 0.1
2017-Apr-20 17:30N 18°23' W 064°31'0 0.1
2017-Apr-20 17:00N 18°23' W 064°31'2 4.7
2017-Apr-20 16:30N 18°25' W 064°29'  
2017-Apr-17 20:13N 18°25' W 064°31'210.6
2017-Apr-17 20:00N 18°25' W 064°33'510.5
2017-Apr-17 19:30N 18°23' W 064°39'5 9.1
2017-Apr-17 19:00N 18°23' W 064°43'4 7.3
2017-Apr-17 18:30N 18°26' W 064°46'0 0.1
2017-Apr-17 18:00N 18°26' W 064°46'0 0.0
2017-Apr-17 17:30N 18°26' W 064°46'0 0.1
2017-Apr-17 17:00N 18°26' W 064°46'0 0.0
2017-Apr-17 16:31N 18°26' W 064°46'0 0.9
2017-Apr-17 16:29N 18°26' W 064°46'0 0.0
2017-Apr-17 16:01N 18°26' W 064°46'0 1.7
2017-Apr-17 15:53N 18°26' W 064°46'0 0.5
2017-Apr-17 15:30N 18°26' W 064°46'0 1.8
2017-Apr-17 15:23N 18°26' W 064°46'0 0.6
2017-Apr-17 15:00N 18°26' W 064°46'011.9
2017-Apr-17 14:59N 18°26' W 064°46'0 0.4
2017-Apr-17 14:30N 18°26' W 064°46'0 0.0
2017-Apr-17 13:30N 18°26' W 064°46'0 0.0
2017-Apr-17 13:01N 18°26' W 064°46'0 0.0
2017-Apr-17 12:30N 18°26' W 064°46'0 0.0
2017-Apr-17 12:00N 18°26' W 064°46'0 0.0
2017-Apr-17 11:30N 18°26' W 064°46'0 0.0
2017-Apr-17 11:00N 18°26' W 064°46'0 0.0
2017-Apr-17 10:30N 18°26' W 064°46'0 0.0
2017-Apr-17 10:00N 18°26' W 064°46'0 0.1
2017-Apr-17 09:30N 18°26' W 064°46'0 0.0
2017-Apr-17 09:00N 18°26' W 064°46'0 0.0
2017-Apr-17 08:31N 18°26' W 064°46'0 0.0
2017-Apr-17 08:00N 18°26' W 064°46'0 0.1
2017-Apr-17 07:30N 18°26' W 064°46'0 0.0
2017-Apr-17 07:00N 18°26' W 064°46'0 0.1
2017-Apr-17 06:30N 18°26' W 064°46'0 0.0
2017-Apr-17 06:00N 18°26' W 064°46'0 0.0
2017-Apr-17 05:30N 18°26' W 064°46'0 0.0
2017-Apr-17 05:00N 18°26' W 064°46'0 0.0
2017-Apr-17 04:30N 18°26' W 064°46'0 0.0
2017-Apr-17 04:00N 18°26' W 064°46'0 0.0
2017-Apr-17 03:30N 18°26' W 064°46'0 0.1
2017-Apr-17 03:00N 18°26' W 064°46'0 0.1
2017-Apr-17 02:30N 18°26' W 064°46'0 0.0
2017-Apr-17 02:00N 18°26' W 064°46'0 0.0
2017-Apr-17 01:30N 18°26' W 064°46'0 0.0
2017-Apr-17 01:00N 18°26' W 064°46'0 0.1
2017-Apr-17 00:30N 18°26' W 064°46'0 0.1
2017-Apr-17 00:00N 18°26' W 064°46'0 0.0
2017-Apr-16 23:30N 18°26' W 064°46'0 0.0
2017-Apr-16 23:00N 18°26' W 064°46'0 0.1
2017-Apr-16 22:51N 18°26' W 064°46'0 0.1
2017-Apr-16 22:30N 18°26' W 064°46'0 2.4
2017-Apr-16 22:29N 18°26' W 064°46'0 0.1
2017-Apr-16 22:00N 18°26' W 064°46'0 0.1
2017-Apr-16 21:47N 18°26' W 064°46'0 0.1
2017-Apr-16 21:30N 18°26' W 064°46'0 1.1
2017-Apr-16 21:28N 18°26' W 064°46'0 0.1
2017-Apr-16 21:00N 18°26' W 064°46'0 0.3
2017-Apr-16 20:55N 18°26' W 064°46'0 0.1
2017-Apr-16 20:31N 18°26' W 064°46'0 0.3
2017-Apr-16 20:25N 18°26' W 064°46'0 0.1
2017-Apr-16 20:00N 18°26' W 064°46'0 1.9
2017-Apr-16 19:59N 18°26' W 064°46'0 0.1
2017-Apr-16 19:30N 18°26' W 064°46'0 0.2
2017-Apr-16 19:20N 18°26' W 064°46'0 0.1
2017-Apr-16 19:00N 18°26' W 064°46'0 0.2
2017-Apr-16 18:56N 18°26' W 064°46'3 6.0
2017-Apr-16 18:30N 18°24' W 064°47'017.3
2017-Apr-16 18:30N 18°24' W 064°47'4 8.6
2017-Apr-16 18:00N 18°20' W 064°48'0 0.3
2017-Apr-16 17:57N 18°20' W 064°48'0 0.1
2017-Apr-16 17:30N 18°20' W 064°48'0 0.0
2017-Apr-16 17:26N 18°20' W 064°48'0 0.0
2017-Apr-16 17:00N 18°20' W 064°48'0 0.1
2017-Apr-16 16:56N 18°20' W 064°48'0 0.0
2017-Apr-16 16:30N 18°20' W 064°48'0 0.0
2017-Apr-16 16:20N 18°20' W 064°48'0 0.0
2017-Apr-16 16:00N 18°20' W 064°48'0 0.1
2017-Apr-16 15:56N 18°20' W 064°48'0 0.8
2017-Apr-16 15:30N 18°20' W 064°48'0145.0
2017-Apr-16 15:30N 18°20' W 064°48'0 0.0
2017-Apr-16 15:00N 18°20' W 064°48'0 0.1
2017-Apr-16 14:53N 18°20' W 064°48'0 0.0
2017-Apr-16 14:05N 18°20' W 064°48'0 0.1
2017-Apr-16 14:00N 18°20' W 064°48'0 0.1
2017-Apr-16 13:30N 18°20' W 064°48'0 0.7
2017-Apr-16 13:29N 18°20' W 064°48'0 0.1
2017-Apr-16 13:00N 18°20' W 064°48'0 0.1
2017-Apr-16 12:51N 18°20' W 064°48'0 0.1
2017-Apr-16 12:30N 18°20' W 064°48'0 0.2
2017-Apr-16 12:28N 18°20' W 064°48'0 0.1
2017-Apr-16 12:00N 18°20' W 064°48'0 4.7
2017-Apr-16 11:59N 18°20' W 064°48'3 6.8
2017-Apr-16 11:30N 18°22' W 064°45'035.3
2017-Apr-16 11:30N 18°22' W 064°45'0 0.4
2017-Apr-16 11:00N 18°22' W 064°45'0 0.0
2017-Apr-16 10:30N 18°22' W 064°45'0 0.0
2017-Apr-16 10:00N 18°22' W 064°45'0 0.0
2017-Apr-16 09:30N 18°22' W 064°45'0 0.0
2017-Apr-16 09:00N 18°22' W 064°45'0 0.0
2017-Apr-16 08:30N 18°22' W 064°45'0 0.0
2017-Apr-16 08:00N 18°22' W 064°45'0 0.0
2017-Apr-16 07:30N 18°22' W 064°45'0 0.0
2017-Apr-16 07:00N 18°22' W 064°45'0 0.0
2017-Apr-16 06:30N 18°22' W 064°45'0 0.0
2017-Apr-16 06:00N 18°22' W 064°45'0 0.0
2017-Apr-16 05:30N 18°22' W 064°45'0 0.0
2017-Apr-16 05:00N 18°22' W 064°45'0 0.0
2017-Apr-16 04:30N 18°22' W 064°45'0 0.0
2017-Apr-16 04:00N 18°22' W 064°45'0 0.0
2017-Apr-16 03:30N 18°22' W 064°45'0 0.0
2017-Apr-16 03:00N 18°22' W 064°45'0 0.0
2017-Apr-16 02:30N 18°22' W 064°45'0 0.0
2017-Apr-16 02:00N 18°22' W 064°45'0 0.0
2017-Apr-16 01:30N 18°22' W 064°45'0 0.0
2017-Apr-16 01:00N 18°22' W 064°45'0 0.0
2017-Apr-16 00:30N 18°22' W 064°45'0 0.0
2017-Apr-16 00:00N 18°22' W 064°45'0 0.0
2017-Apr-15 23:30N 18°22' W 064°45'0 0.0
2017-Apr-15 23:00N 18°22' W 064°45'0 0.0
2017-Apr-15 22:30N 18°22' W 064°45'0 0.0
2017-Apr-15 22:00N 18°22' W 064°45'0 0.0
2017-Apr-15 21:30N 18°22' W 064°45'0 0.0
2017-Apr-15 21:00N 18°22' W 064°45'0 0.0
2017-Apr-15 20:30N 18°22' W 064°45'0 0.0
2017-Apr-15 20:00N 18°22' W 064°45'0 0.1
2017-Apr-15 19:31N 18°22' W 064°45'3 6.8
2017-Apr-15 19:00N 18°20' W 064°48'8 0.2
2017-Apr-13 21:32N 18°20' W 064°57'0 0.0
2017-Apr-13 20:50N 18°20' W 064°57'0 0.2
2017-Apr-13 20:29N 18°20' W 064°57'3 5.7
2017-Apr-13 20:00N 18°18' W 064°55'510.2
2017-Apr-13 19:30N 18°19' W 064°49'1 2.6
2017-Apr-13 19:00N 18°20' W 064°48'2 4.4
2017-Apr-13 18:30N 18°22' W 064°47'611.0
2017-Apr-13 18:00N 18°25' W 064°42'510.7
2017-Apr-13 17:30N 18°28' W 064°37'5 2.5
2017-Apr-13 15:27N 18°27' W 064°32'0 0.0
2017-Apr-13 10:00N 18°27' W 064°32'0 0.0
2017-Apr-13 08:40N 18°27' W 064°32'0 0.0
2017-Apr-13 08:20N 18°27' W 064°32'0 0.0
2017-Apr-13 08:00N 18°27' W 064°32'0 0.0
2017-Apr-13 07:23N 18°27' W 064°32'0 0.0
2017-Apr-13 04:54N 18°27' W 064°32'0 0.0
2017-Apr-13 04:09N 18°27' W 064°32'0 0.1
2017-Apr-13 03:49N 18°27' W 064°32'0 0.0
2017-Apr-13 03:05N 18°27' W 064°32'0 0.1
2017-Apr-13 03:00N 18°27' W 064°32'0 0.0
2017-Apr-13 02:29N 18°27' W 064°32'0 0.0
2017-Apr-13 01:01N 18°27' W 064°32'0 0.0
2017-Apr-13 00:59N 18°27' W 064°32'0 0.0
2017-Apr-12 23:15N 18°27' W 064°32'2 6.3
2017-Apr-12 22:52N 18°27' W 064°29'2 7.0
2017-Apr-12 22:30N 18°26' W 064°27'0 0.0
2017-Apr-12 21:57N 18°26' W 064°27'0 0.0
2017-Apr-12 20:46N 18°26' W 064°27'0 0.0
2017-Apr-12 19:09N 18°26' W 064°27'0 0.0
2017-Apr-12 18:56N 18°26' W 064°27'  

Dump ship's entire track history